createdAt,value
2022-08-03T00:01:22.600Z,93.80
2022-08-03T00:03:49.301Z,93.30
2022-08-03T00:06:15.945Z,93.10
2022-08-03T00:08:42.646Z,93.80
2022-08-03T00:11:09.340Z,92.70
2022-08-03T00:13:36.188Z,94.30
2022-08-03T00:16:02.897Z,94.70
2022-08-03T00:18:29.744Z,96.30
2022-08-03T00:20:56.449Z,96.00
2022-08-03T00:23:23.136Z,94.10
2022-08-03T00:25:49.812Z,97.50
2022-08-03T00:28:16.862Z,96.80
2022-08-03T00:30:43.516Z,97.10
2022-08-03T00:33:11.383Z,97.90
2022-08-03T00:35:50.480Z,96.30
2022-08-03T00:38:18.146Z,95.50
2022-08-03T00:40:44.822Z,98.30
2022-08-03T00:43:11.773Z,97.40
2022-08-03T00:45:40.689Z,98.50
2022-08-03T00:48:19.467Z,99.90
2022-08-03T00:50:54.948Z,99.90
2022-08-03T00:53:21.683Z,99.90
2022-08-03T00:55:48.417Z,99.90
2022-08-03T00:58:15.186Z,99.90
2022-08-03T01:00:41.986Z,99.90
2022-08-03T01:03:09.469Z,99.90
2022-08-03T01:05:59.449Z,99.90
2022-08-03T01:08:32.133Z,99.90
2022-08-03T01:11:17.815Z,99.90
2022-08-03T01:14:03.438Z,99.90
2022-08-03T01:16:48.057Z,99.90
2022-08-03T01:19:20.731Z,99.90
2022-08-03T01:21:50.482Z,99.90
2022-08-03T01:24:35.084Z,99.90
2022-08-03T01:27:03.472Z,99.90
2022-08-03T01:29:30.140Z,99.90
2022-08-03T01:32:57.983Z,99.90
2022-08-03T01:34:57.349Z,99.90
2022-08-03T01:37:26.654Z,99.90
2022-08-03T01:39:56.020Z,99.90
2022-08-03T01:42:23.186Z,99.90
2022-08-03T01:44:52.560Z,99.90
2022-08-03T01:47:20.420Z,99.90
2022-08-03T01:49:48.442Z,99.90
2022-08-03T01:52:18.806Z,99.90
2022-08-03T01:54:48.513Z,99.90
2022-08-03T01:57:16.017Z,99.90
2022-08-03T01:59:43.263Z,99.90
2022-08-03T02:02:28.733Z,99.90
2022-08-03T02:05:00.505Z,99.90
2022-08-03T02:07:27.887Z,99.90
2022-08-03T02:09:55.445Z,99.90
2022-08-03T02:12:23.966Z,99.90
2022-08-03T02:14:51.183Z,99.90
2022-08-03T02:17:18.406Z,99.90
2022-08-03T02:20:05.875Z,99.90
2022-08-03T02:22:33.730Z,99.90
2022-08-03T02:25:00.469Z,99.90
2022-08-03T02:27:29.268Z,99.90
2022-08-03T02:30:02.127Z,99.90
2022-08-03T02:32:30.744Z,99.90
2022-08-03T02:34:58.222Z,99.90
2022-08-03T02:37:26.974Z,99.90
2022-08-03T02:39:57.946Z,99.90
2022-08-03T02:42:26.628Z,99.90
2022-08-03T02:44:54.379Z,99.90
2022-08-03T02:47:21.506Z,99.90
2022-08-03T02:49:50.645Z,99.90
2022-08-03T02:52:21.560Z,99.90
2022-08-03T02:54:49.273Z,99.90
2022-08-03T02:57:16.845Z,99.90
2022-08-03T02:59:46.857Z,99.90
2022-08-03T03:02:14.728Z,99.90
2022-08-03T03:04:59.731Z,99.90
2022-08-03T03:07:29.452Z,99.90
2022-08-03T03:10:01.732Z,99.90
2022-08-03T03:12:29.282Z,99.90
2022-08-03T03:14:55.972Z,99.90
2022-08-03T03:17:23.276Z,99.90
2022-08-03T03:19:50.941Z,99.90
2022-08-03T03:22:17.813Z,99.90
2022-08-03T03:24:46.021Z,99.90
2022-08-03T03:27:16.690Z,99.90
2022-08-03T03:29:44.044Z,99.90
2022-08-03T03:32:10.921Z,99.90
2022-08-03T03:34:37.915Z,99.90
2022-08-03T03:37:05.265Z,99.90
2022-08-03T03:39:32.062Z,99.90
2022-08-03T03:42:00.085Z,99.90
2022-08-03T03:44:29.962Z,99.90
2022-08-03T03:46:59.918Z,99.90
2022-08-03T03:49:26.982Z,99.90
2022-08-03T03:51:54.933Z,99.90
2022-08-03T03:54:21.790Z,99.90
2022-08-03T03:56:52.369Z,99.90
2022-08-03T03:59:19.094Z,99.90
2022-08-03T04:01:45.980Z,99.90
2022-08-03T04:04:31.140Z,99.90
2022-08-03T04:07:16.672Z,99.90
2022-08-03T04:10:14.104Z,99.90
2022-08-03T04:12:49.993Z,99.90
2022-08-03T04:15:19.545Z,99.90
2022-08-03T04:17:47.112Z,96.00
2022-08-03T04:20:14.102Z,92.80
2022-08-03T04:22:42.083Z,85.60
2022-08-03T04:25:10.423Z,82.70
2022-08-03T04:27:38.153Z,72.30
2022-08-03T04:30:05.610Z,65.50
2022-08-03T04:32:33.063Z,57.90
2022-08-03T04:34:59.882Z,53.70
2022-08-03T04:37:33.074Z,50.30
2022-08-03T04:40:01.692Z,45.90
2022-08-03T04:42:29.323Z,46.90
2022-08-03T04:45:00.789Z,48.10
2022-08-03T04:47:28.354Z,44.60
2022-08-03T04:49:55.169Z,43.20
2022-08-03T04:52:21.971Z,46.00
2022-08-03T04:54:50.886Z,50.20
2022-08-03T04:57:23.236Z,52.00
2022-08-03T05:00:01.950Z,53.60
2022-08-03T05:02:29.865Z,56.30
2022-08-03T05:04:56.834Z,58.40
2022-08-03T05:07:25.081Z,56.10
2022-08-03T05:10:01.589Z,53.30
2022-08-03T05:12:32.941Z,39.10
2022-08-03T05:15:00.601Z,24.40
2022-08-03T05:17:28.377Z,24.10
2022-08-03T05:19:55.368Z,18.50
2022-08-03T05:22:22.411Z,8.00
2022-08-03T05:24:49.159Z,3.40
2022-08-03T05:27:21.649Z,4.00
2022-08-03T05:29:49.043Z,5.60
2022-08-03T05:32:16.312Z,1.00
2022-08-03T05:34:43.412Z,1.00
2022-08-03T05:37:10.385Z,1.00
2022-08-03T05:39:40.464Z,1.00
2022-08-03T05:42:07.342Z,1.00
2022-08-03T05:44:34.199Z,1.00
2022-08-03T05:47:00.865Z,1.00
2022-08-03T05:49:27.655Z,1.00
2022-08-03T05:52:00.349Z,1.00
2022-08-03T05:54:56.012Z,1.00
2022-08-03T05:57:25.072Z,1.00
2022-08-03T05:59:57.851Z,1.00
2022-08-03T06:02:28.392Z,2.80
2022-08-03T06:04:55.153Z,1.30
2022-08-03T06:07:21.879Z,1.00
2022-08-03T06:10:34.084Z,1.00
2022-08-03T06:12:38.970Z,1.00
2022-08-03T06:15:05.773Z,1.00
2022-08-03T06:17:37.368Z,1.00
2022-08-03T06:20:05.459Z,1.00
2022-08-03T06:22:32.170Z,1.00
2022-08-03T06:24:58.977Z,1.00
2022-08-03T06:27:36.527Z,1.00
2022-08-03T06:30:04.792Z,1.00
2022-08-03T06:32:31.468Z,1.00
2022-08-03T06:34:58.099Z,1.00
2022-08-03T06:37:24.866Z,1.00
2022-08-03T06:39:51.554Z,1.00
2022-08-03T06:42:18.468Z,1.00
2022-08-03T06:44:47.728Z,1.00
2022-08-03T06:47:14.384Z,1.00
2022-08-03T06:49:41.707Z,1.00
2022-08-03T06:52:08.515Z,1.00
2022-08-03T06:54:36.111Z,1.00
2022-08-03T06:57:03.594Z,1.00
2022-08-03T07:00:07.972Z,1.00
2022-08-03T07:02:19.614Z,1.00
2022-08-03T07:04:50.420Z,1.00
2022-08-03T07:07:20.585Z,1.00
2022-08-03T07:09:57.181Z,1.00
2022-08-03T07:12:25.366Z,1.00
2022-08-03T07:14:54.569Z,1.00
2022-08-03T07:17:23.533Z,1.00
2022-08-03T07:19:56.978Z,1.00
2022-08-03T07:22:33.061Z,1.00
2022-08-03T07:25:00.274Z,1.00
2022-08-03T07:27:28.487Z,1.00
2022-08-03T07:29:55.632Z,1.00
2022-08-03T07:32:22.884Z,1.00
2022-08-03T07:34:49.531Z,1.00
2022-08-03T07:37:16.250Z,1.00
2022-08-03T07:39:43.003Z,1.00
2022-08-03T07:42:09.786Z,1.00
2022-08-03T07:44:36.826Z,1.00
2022-08-03T07:47:03.683Z,1.00
2022-08-03T07:49:30.540Z,1.00
2022-08-03T07:52:16.207Z,1.00
2022-08-03T07:54:42.992Z,1.00
2022-08-03T07:57:09.623Z,1.00
2022-08-03T07:59:57.205Z,1.00
2022-08-03T08:02:25.061Z,1.00
2022-08-03T08:04:51.802Z,1.00
2022-08-03T08:07:18.563Z,1.00
2022-08-03T08:09:50.057Z,1.00
2022-08-03T08:12:16.990Z,1.00
2022-08-03T08:14:46.649Z,1.00
2022-08-03T08:17:15.964Z,1.00
2022-08-03T08:19:48.997Z,1.00
2022-08-03T08:22:29.957Z,1.00
2022-08-03T08:24:58.334Z,1.00
2022-08-03T08:27:25.311Z,1.00
2022-08-03T08:29:54.573Z,1.00
2022-08-03T08:32:24.505Z,1.00
2022-08-03T08:34:51.184Z,1.00
2022-08-03T08:37:17.899Z,1.00
2022-08-03T08:39:44.626Z,1.00
2022-08-03T08:42:11.350Z,1.00
2022-08-03T08:44:38.090Z,1.00
2022-08-03T08:47:04.984Z,1.00
2022-08-03T08:49:32.799Z,1.00
2022-08-03T08:52:01.195Z,1.00
2022-08-03T08:54:29.564Z,1.00
2022-08-03T08:56:57.275Z,1.00
2022-08-03T08:59:24.344Z,1.00
2022-08-03T09:01:51.131Z,1.00
2022-08-03T09:04:17.859Z,1.00
2022-08-03T09:06:53.859Z,1.00
2022-08-03T09:10:07.598Z,1.00
2022-08-03T09:12:40.550Z,1.00
2022-08-03T09:15:18.710Z,1.00
2022-08-03T09:17:50.680Z,1.00
2022-08-03T09:20:18.166Z,1.00
2022-08-03T09:22:56.051Z,1.00
2022-08-03T09:25:33.448Z,1.00
2022-08-03T09:28:10.338Z,1.00
2022-08-03T09:30:38.391Z,1.00
2022-08-03T09:33:06.587Z,1.00
2022-08-03T09:35:53.193Z,1.00
2022-08-03T09:38:24.238Z,1.00
2022-08-03T09:40:53.723Z,1.00
2022-08-03T09:43:23.625Z,1.00
2022-08-03T09:45:50.348Z,1.00
2022-08-03T09:48:20.779Z,1.00
2022-08-03T09:50:57.031Z,1.00
2022-08-03T09:53:57.258Z,1.00
2022-08-03T09:56:42.633Z,1.00
2022-08-03T09:59:10.398Z,1.00
2022-08-03T10:01:37.513Z,1.00
2022-08-03T10:04:05.270Z,1.00
2022-08-03T10:06:32.310Z,1.00
2022-08-03T10:09:12.374Z,1.00
2022-08-03T10:11:42.140Z,1.00
2022-08-03T10:14:19.615Z,1.00
2022-08-03T10:16:47.306Z,1.00
2022-08-03T10:19:15.186Z,1.00
2022-08-03T10:21:44.316Z,1.00
2022-08-03T10:24:12.043Z,1.00
2022-08-03T10:26:39.837Z,1.00
2022-08-03T10:29:27.472Z,1.00
2022-08-03T10:31:58.147Z,1.00
2022-08-03T10:34:33.957Z,1.00
2022-08-03T10:37:02.105Z,1.00
2022-08-03T10:39:29.970Z,1.00
2022-08-03T10:41:58.817Z,1.00
2022-08-03T10:44:33.690Z,1.00
2022-08-03T10:47:00.838Z,1.00
2022-08-03T10:49:34.287Z,99.90
2022-08-03T10:52:02.724Z,99.90
2022-08-03T10:54:59.932Z,99.90
2022-08-03T10:58:05.754Z,99.90
2022-08-03T11:00:48.112Z,99.90
2022-08-03T11:03:14.907Z,99.90
2022-08-03T11:05:54.353Z,99.90
2022-08-03T11:08:28.478Z,99.90
2022-08-03T11:11:15.373Z,99.90
2022-08-03T11:13:56.550Z,99.90
2022-08-03T11:16:23.785Z,99.90
2022-08-03T11:19:00.693Z,99.90
2022-08-03T11:21:45.882Z,99.90
2022-08-03T11:24:32.599Z,99.90
2022-08-03T11:27:14.700Z,99.90
2022-08-03T11:30:00.212Z,99.90
2022-08-03T11:32:48.472Z,99.90
2022-08-03T11:35:26.390Z,99.90
2022-08-03T11:38:04.656Z,99.90
2022-08-03T11:40:35.150Z,99.90
2022-08-03T11:43:01.995Z,99.90
2022-08-03T11:45:28.754Z,99.90
2022-08-03T11:47:55.794Z,99.90
2022-08-03T11:50:22.610Z,99.90
2022-08-03T11:52:49.583Z,99.90
2022-08-03T11:59:01.901Z,99.90
2022-08-03T12:00:32.740Z,99.90
2022-08-03T12:03:07.426Z,99.90
2022-08-03T12:05:35.151Z,99.90
2022-08-03T12:08:04.236Z,99.90
2022-08-03T12:10:33.343Z,99.90
2022-08-03T12:13:00.908Z,99.90
2022-08-03T12:15:31.233Z,99.90
2022-08-03T12:17:58.292Z,99.90
2022-08-03T12:20:34.457Z,99.90
2022-08-03T12:23:04.264Z,99.90
2022-08-03T12:25:39.616Z,99.90
2022-08-03T12:28:37.128Z,99.90
2022-08-03T12:31:04.418Z,99.90
2022-08-03T12:33:31.174Z,99.90
2022-08-03T12:36:08.250Z,99.90
2022-08-03T12:38:36.584Z,99.90
2022-08-03T12:41:15.946Z,99.90
2022-08-03T12:43:49.376Z,99.90
2022-08-03T12:46:17.032Z,99.90
2022-08-03T12:49:04.395Z,99.90
2022-08-03T12:51:32.672Z,99.90
2022-08-03T12:53:59.710Z,99.90
2022-08-03T12:56:26.661Z,99.90
2022-08-03T12:58:53.412Z,99.90
2022-08-03T13:01:22.500Z,99.90
2022-08-03T13:03:52.863Z,99.90
2022-08-03T13:06:21.425Z,99.90
2022-08-03T13:08:48.475Z,99.90
2022-08-03T13:11:55.413Z,99.90
2022-08-03T13:14:19.979Z,99.90
2022-08-03T13:16:47.782Z,99.90
2022-08-03T13:19:15.427Z,99.90
2022-08-03T13:22:01.732Z,99.90
2022-08-03T13:24:31.397Z,99.90
2022-08-03T13:26:58.943Z,99.90
2022-08-03T13:29:25.664Z,99.90
2022-08-03T13:31:52.425Z,99.90
2022-08-03T13:34:22.940Z,99.90
2022-08-03T13:37:08.498Z,99.90
2022-08-03T13:39:57.545Z,99.90
2022-08-03T13:42:24.563Z,99.90
2022-08-03T13:44:51.312Z,99.90
2022-08-03T13:47:18.518Z,99.90
2022-08-03T13:49:59.373Z,99.90
2022-08-03T13:52:27.632Z,99.90
2022-08-03T13:54:54.543Z,99.90
2022-08-03T13:58:05.417Z,99.90
2022-08-03T14:00:08.333Z,99.90
2022-08-03T14:02:35.156Z,99.90
2022-08-03T14:05:02.002Z,99.90
2022-08-03T14:07:28.745Z,99.90
2022-08-03T14:09:55.497Z,99.90
2022-08-03T14:12:22.260Z,99.90
2022-08-03T14:14:49.034Z,99.90
2022-08-03T14:17:16.317Z,99.90
2022-08-03T14:19:52.588Z,99.90
2022-08-03T14:22:20.592Z,99.90
2022-08-03T14:24:47.277Z,99.90
2022-08-03T14:27:13.966Z,99.90
2022-08-03T14:29:40.946Z,99.90
2022-08-03T14:32:11.315Z,99.90
2022-08-03T14:34:39.695Z,99.90
2022-08-03T14:37:06.410Z,99.90
2022-08-03T14:42:20.457Z,99.90
2022-08-03T14:44:47.536Z,99.90
2022-08-03T14:47:14.511Z,99.90
2022-08-03T14:50:37.960Z,99.90
2022-08-03T14:52:27.995Z,99.90
2022-08-03T14:54:54.902Z,99.90
2022-08-03T14:57:21.985Z,99.90
2022-08-03T14:59:55.936Z,99.90
2022-08-03T15:02:27.936Z,99.90
2022-08-03T15:04:54.776Z,99.90
2022-08-03T15:07:21.733Z,99.90
2022-08-03T15:09:48.672Z,99.90
2022-08-03T15:12:15.354Z,99.90
2022-08-03T15:14:42.086Z,99.90
2022-08-03T15:17:08.972Z,99.90
2022-08-03T15:20:03.627Z,99.90
2022-08-03T15:22:25.171Z,99.90
2022-08-03T15:25:02.099Z,99.90
2022-08-03T15:27:28.805Z,99.90
2022-08-03T15:30:08.706Z,99.90
2022-08-03T15:32:37.007Z,99.90
2022-08-03T15:35:03.987Z,99.90
2022-08-03T15:37:30.689Z,99.90
2022-08-03T15:39:59.240Z,99.90
2022-08-03T15:42:27.077Z,99.90
2022-08-03T15:44:54.519Z,99.90
2022-08-03T15:47:21.771Z,99.90
2022-08-03T15:49:48.820Z,99.90
2022-08-03T15:52:15.522Z,99.90
2022-08-03T15:54:42.362Z,99.90
2022-08-03T15:57:09.047Z,99.90
2022-08-03T15:59:36.016Z,99.90
2022-08-03T16:02:03.051Z,99.90
2022-08-03T16:04:29.896Z,99.90
2022-08-03T16:06:56.841Z,99.90
2022-08-03T16:09:42.476Z,99.90
2022-08-03T16:12:16.121Z,99.90
2022-08-03T16:14:52.335Z,99.90
2022-08-03T16:17:20.573Z,99.90
2022-08-03T16:19:47.634Z,99.90
2022-08-03T16:22:14.664Z,99.90
2022-08-03T16:24:41.596Z,99.90
2022-08-03T16:27:36.703Z,99.90
2022-08-03T16:29:55.198Z,99.90
2022-08-03T16:32:21.911Z,99.90
2022-08-03T16:34:48.799Z,99.90
2022-08-03T16:37:37.503Z,99.90
2022-08-03T16:40:03.033Z,99.90
2022-08-03T16:42:29.734Z,99.90
2022-08-03T16:44:56.444Z,99.90
2022-08-03T16:47:23.748Z,99.90
2022-08-03T16:49:53.106Z,99.90
2022-08-03T16:52:23.331Z,99.90
2022-08-03T16:54:50.506Z,99.90
2022-08-03T16:57:56.066Z,99.90
2022-08-03T17:00:07.186Z,99.90
2022-08-03T17:02:34.097Z,99.90
2022-08-03T17:05:03.248Z,99.90
2022-08-03T17:07:30.565Z,99.90
2022-08-03T17:09:57.377Z,99.90
2022-08-03T17:12:26.851Z,99.90
2022-08-03T17:14:54.496Z,99.90
2022-08-03T17:17:27.847Z,99.90
2022-08-03T17:19:56.386Z,99.90
2022-08-03T17:22:33.296Z,99.90
2022-08-03T17:25:07.569Z,99.90
2022-08-03T17:28:49.151Z,99.90
2022-08-03T17:30:25.312Z,99.90
2022-08-03T17:32:52.643Z,99.90
2022-08-03T17:35:36.796Z,99.90
2022-08-03T17:38:08.915Z,99.90
2022-08-03T17:40:39.155Z,99.90
2022-08-03T17:44:13.018Z,99.90
2022-08-03T17:46:03.431Z,99.90
2022-08-03T17:48:36.178Z,99.90
2022-08-03T17:51:15.394Z,99.90
2022-08-03T17:53:46.011Z,99.90
2022-08-03T17:56:42.480Z,99.90
2022-08-03T17:59:12.618Z,99.90
2022-08-03T18:02:29.523Z,99.90
2022-08-03T18:05:16.432Z,99.90
2022-08-03T18:08:00.837Z,99.90
2022-08-03T18:10:34.093Z,99.90
2022-08-03T18:13:10.789Z,99.90
2022-08-03T18:15:39.859Z,99.90
2022-08-03T18:18:10.971Z,99.90
2022-08-03T18:20:41.551Z,99.90
2022-08-03T18:23:09.703Z,99.90
2022-08-03T18:25:45.310Z,99.90
2022-08-03T18:28:18.691Z,99.90
2022-08-03T18:30:54.133Z,99.90
2022-08-03T18:34:19.598Z,99.90
2022-08-03T18:36:18.033Z,99.90
2022-08-03T18:38:51.026Z,99.90
2022-08-03T18:41:31.872Z,99.90
2022-08-03T18:44:06.825Z,99.90
2022-08-03T18:46:54.789Z,99.90
2022-08-03T18:49:29.165Z,99.90
2022-08-03T18:52:00.452Z,99.90
2022-08-03T18:54:47.061Z,99.90
2022-08-03T18:57:30.401Z,99.90
2022-08-03T19:00:15.412Z,99.90
2022-08-03T19:03:01.425Z,99.90
2022-08-03T19:05:56.266Z,99.90
2022-08-03T19:08:27.003Z,99.90
2022-08-03T19:10:57.630Z,99.90
2022-08-03T19:13:36.634Z,99.90
2022-08-03T19:16:04.549Z,99.90
2022-08-03T19:18:36.156Z,99.90
2022-08-03T19:21:03.517Z,99.90
2022-08-03T19:23:45.001Z,99.90
2022-08-03T19:26:30.614Z,99.90
2022-08-03T19:28:58.538Z,99.90
2022-08-03T19:31:30.997Z,99.90
2022-08-03T19:34:02.585Z,99.90
2022-08-03T19:36:29.651Z,99.90
2022-08-03T19:38:57.049Z,99.90
2022-08-03T19:41:31.193Z,99.90
2022-08-03T19:44:11.475Z,99.90
2022-08-03T19:46:46.694Z,99.90
2022-08-03T19:49:15.984Z,99.90
2022-08-03T19:52:00.675Z,99.90
2022-08-03T19:54:35.389Z,99.90
2022-08-03T19:57:02.583Z,99.90
2022-08-03T19:59:35.176Z,99.90
2022-08-03T20:02:05.271Z,99.90
2022-08-03T20:04:32.214Z,99.90
2022-08-03T20:06:59.918Z,99.90
2022-08-03T20:09:30.321Z,99.90
2022-08-03T20:11:57.366Z,99.90
2022-08-03T20:14:26.710Z,99.90
2022-08-03T20:16:53.613Z,1.00
2022-08-03T20:19:20.465Z,1.00
2022-08-03T20:21:47.931Z,1.00
2022-08-03T20:24:36.160Z,1.00
2022-08-03T20:27:07.692Z,1.00
2022-08-03T20:29:42.553Z,1.00
2022-08-03T20:32:24.388Z,1.00
2022-08-03T20:34:52.009Z,1.00
2022-08-03T20:37:19.853Z,1.00
2022-08-03T20:39:49.512Z,1.00
2022-08-03T20:42:21.746Z,1.00
2022-08-03T20:45:04.453Z,1.00
2022-08-03T20:47:50.727Z,1.00
2022-08-03T20:50:17.943Z,1.00
2022-08-03T20:55:48.027Z,1.00
2022-08-03T20:58:20.184Z,1.00
2022-08-03T21:00:51.615Z,1.00
2022-08-03T21:03:18.841Z,1.00
2022-08-03T21:05:51.453Z,1.00
2022-08-03T21:08:24.311Z,1.00
2022-08-03T21:10:52.466Z,1.00
2022-08-03T21:13:07.593Z,1.00
2022-08-03T21:13:42.271Z,1.00
2022-08-03T21:16:14.748Z,1.00
2022-08-03T21:18:49.850Z,1.00
2022-08-03T21:21:18.026Z,1.00
2022-08-03T21:23:49.542Z,1.00
2022-08-03T21:26:20.636Z,1.00
2022-08-03T21:28:48.271Z,1.00
2022-08-03T21:31:24.789Z,1.00
2022-08-03T21:34:02.717Z,1.00
2022-08-03T21:36:31.331Z,1.00
2022-08-03T21:38:58.736Z,1.00
2022-08-03T21:41:27.003Z,1.00
2022-08-03T21:43:53.705Z,1.00
2022-08-03T21:46:20.574Z,1.00
2022-08-03T21:48:48.306Z,1.00
2022-08-03T21:51:16.416Z,1.00
2022-08-03T21:54:03.545Z,1.00
2022-08-03T21:56:34.808Z,1.00
2022-08-03T21:59:06.169Z,1.00
2022-08-03T22:01:35.361Z,1.00
2022-08-03T22:04:03.447Z,1.00
2022-08-03T22:06:30.143Z,1.00
2022-08-03T22:08:56.815Z,1.00
2022-08-03T22:11:23.549Z,1.00
2022-08-03T22:13:50.666Z,1.00
2022-08-03T22:16:17.719Z,1.00
2022-08-03T22:18:45.405Z,1.00
2022-08-03T22:21:13.316Z,1.00
2022-08-03T22:23:45.145Z,1.00
2022-08-03T22:26:17.929Z,1.00
2022-08-03T22:29:02.181Z,1.00
2022-08-03T22:31:30.798Z,1.00
2022-08-03T22:34:15.736Z,1.00
2022-08-03T22:36:42.777Z,1.00
2022-08-03T22:39:09.889Z,1.00
2022-08-03T22:41:36.681Z,1.00
2022-08-03T22:44:04.726Z,1.00
2022-08-03T22:46:32.188Z,1.00
2022-08-03T22:48:59.166Z,1.00
2022-08-03T22:51:25.845Z,1.00
2022-08-03T22:53:52.528Z,1.00
2022-08-03T22:56:19.192Z,1.00
2022-08-03T22:58:45.898Z,1.00
2022-08-03T23:01:14.949Z,1.00
2022-08-03T23:03:59.830Z,1.00
2022-08-03T23:06:30.145Z,1.00
2022-08-03T23:08:57.159Z,1.00
2022-08-03T23:11:23.911Z,1.00
2022-08-03T23:13:53.439Z,1.00
2022-08-03T23:16:29.370Z,1.00
2022-08-03T23:18:57.805Z,1.00
2022-08-03T23:21:53.106Z,1.00
2022-08-03T23:24:29.419Z,1.00
2022-08-03T23:26:57.143Z,1.00
2022-08-03T23:29:24.068Z,1.00
2022-08-03T23:31:52.970Z,1.00
2022-08-03T23:34:38.749Z,1.00
2022-08-03T23:37:05.671Z,1.00
2022-08-03T23:39:35.153Z,1.00
2022-08-03T23:42:03.138Z,1.00
2022-08-03T23:44:30.468Z,1.00
2022-08-03T23:46:57.479Z,1.00
2022-08-03T23:49:24.199Z,1.00
2022-08-03T23:51:56.920Z,1.00
2022-08-03T23:54:39.999Z,1.00
2022-08-03T23:57:13.111Z,1.00
2022-08-03T23:59:52.062Z,1.00
